Portada
METAR-TAF:

METAR-TAF

Aeroports :

Al Wajh, Aràbia Saudita

latitud: 26-12N, longitud: 036-28E, altitud: 20 m

Observació

L'informe es va fer fa 21 minuts, a les 04:00 UTC
Vent 4 kt del Nord
Temperatura 27°C
Humitat 84%
Pressió 1004 hPa
Visibilitat 10 km o més
sense núvols per sota de 1500 mi sense presència de cumulonimbus.

METAR: OEWJ 220400Z 01004KT CAVOK 27/24 Q1004 NOSIG

Hora: 07:21 (04:21 UTC)

Pronòstic

L'informe es va fer fa 5 hores i 21 minuts, a les 23:00 UTC
Pronòstic vàlid del 22 a les 00 UTC al 23 a les 06 UTC
Vent 3 kt amb direcció variable
Visibilitat: 7000 m
Evolucionant progressivament
l' 22 a les 06 UTC al 22 a les 08 UTC
Vent 12 kt del Oest/Nord-Oest
Visibilitat 10 km o més
sense núvols per sota de 1500 mi sense presència de cumulonimbus.
Evolucionant progressivament
l' 22 a les 18 UTC al 22 a les 20 UTC
Vent 3 kt amb direcció variable

TAF: OEWJ 212300Z 2200/2306 VRB03KT 7000 NSC BECMG 2206/2208 30012KT CAVOK BECMG 2218/2220 VRB03KT

Observacions i pronòstics meteorològics de més de 4000 aeroports (METAR i TAF).

Les estacions disponibles són els punts grocs i vermells al mapa.

Posi el ratolí al punt desitjat per veure el nom de l'estació.

Feu clic per veure les observacions i els pronòstics meteorològics.

Per canviar el mapa: feu clic els botons verds amb una creu de color negre per apropar; al botó verd amb un guió per allunyar la imatge; o en les fletxes verdes per a mapes adjacents.


METAR-TAF: